createdAt,value
2024-01-07T00:00:18.589Z,94020.00
2024-01-07T00:03:22.610Z,94015.13
2024-01-07T00:06:26.864Z,94012.50
2024-01-07T00:09:30.559Z,94012.09
2024-01-07T00:12:34.603Z,94005.66
2024-01-07T00:15:38.556Z,94009.50
2024-01-07T00:18:42.789Z,94002.78
2024-01-07T00:21:46.635Z,93993.72
2024-01-07T00:24:50.845Z,93999.25
2024-01-07T00:27:57.118Z,93994.84
2024-01-07T00:31:01.225Z,93988.03
2024-01-07T00:34:05.138Z,93995.22
2024-01-07T00:37:09.348Z,93996.69
2024-01-07T00:40:13.385Z,94002.66
2024-01-07T00:43:17.567Z,93994.84
2024-01-07T00:46:21.266Z,93990.38
2024-01-07T00:49:24.836Z,93997.03
2024-01-07T00:52:28.468Z,94001.06
2024-01-07T00:55:32.698Z,93988.53
2024-01-07T00:58:38.367Z,93979.09
2024-01-07T01:01:42.701Z,93972.41
2024-01-07T01:04:46.606Z,93970.16
2024-01-07T01:07:50.741Z,93964.78
2024-01-07T01:10:54.296Z,93956.81
2024-01-07T01:13:58.804Z,93941.19
2024-01-07T01:17:02.520Z,93937.16
2024-01-07T01:20:05.860Z,93943.06
2024-01-07T01:23:09.829Z,93935.25
2024-01-07T01:26:13.798Z,93929.53
2024-01-07T01:29:17.481Z,93932.72
2024-01-07T01:32:20.424Z,93917.59
2024-01-07T01:35:24.528Z,93912.50
2024-01-07T01:38:27.658Z,93920.81
2024-01-07T01:41:31.663Z,93911.16
2024-01-07T01:44:35.999Z,93898.91
2024-01-07T01:47:39.744Z,93915.88
2024-01-07T01:50:43.166Z,93908.88
2024-01-07T01:53:48.078Z,93904.19
2024-01-07T01:56:51.461Z,93899.06
2024-01-07T01:59:55.717Z,93904.06
2024-01-07T02:02:59.486Z,93911.31
2024-01-07T02:06:03.728Z,93908.56
2024-01-07T02:09:07.362Z,93910.81
2024-01-07T02:12:13.523Z,93906.78
2024-01-07T02:15:17.158Z,93900.56
2024-01-07T02:18:21.538Z,93893.41
2024-01-07T02:21:24.843Z,93886.06
2024-01-07T02:24:28.930Z,93884.13
2024-01-07T02:27:31.930Z,93876.31
2024-01-07T02:30:35.181Z,93879.47
2024-01-07T02:33:39.465Z,93871.88
2024-01-07T02:36:43.949Z,93864.13
2024-01-07T02:39:53.263Z,93861.22
2024-01-07T02:43:04.659Z,93854.72
2024-01-07T02:46:09.621Z,93843.06
2024-01-07T02:49:15.504Z,93839.69
2024-01-07T02:52:19.214Z,93832.06
2024-01-07T02:55:23.276Z,93832.50
2024-01-07T02:58:27.149Z,93832.00
2024-01-07T03:01:30.691Z,93825.38
2024-01-07T03:04:34.587Z,93826.53
2024-01-07T03:07:40.332Z,93836.03
2024-01-07T03:10:43.386Z,93836.44
2024-01-07T03:13:47.022Z,93837.78
2024-01-07T03:16:50.944Z,93828.66
2024-01-07T03:19:54.483Z,93835.75
2024-01-07T03:23:22.229Z,93823.09
2024-01-07T03:26:25.822Z,93815.44
2024-01-07T03:29:29.055Z,93823.41
2024-01-07T03:32:32.951Z,93815.63
2024-01-07T03:35:36.664Z,93794.13
2024-01-07T03:38:41.315Z,93799.09
2024-01-07T03:41:44.894Z,93794.44
2024-01-07T03:44:48.500Z,93791.22
2024-01-07T03:47:52.223Z,93790.09
2024-01-07T03:50:58.560Z,93778.91
2024-01-07T03:54:01.458Z,93775.16
2024-01-07T03:57:04.581Z,93771.88
2024-01-07T04:00:08.192Z,93775.47
2024-01-07T04:03:11.900Z,93774.38
2024-01-07T04:06:15.621Z,93770.47
2024-01-07T04:09:19.839Z,93764.00
2024-01-07T04:12:22.727Z,93764.72
2024-01-07T04:15:26.891Z,93749.47
2024-01-07T04:18:30.786Z,93744.78
2024-01-07T04:21:34.259Z,93744.09
2024-01-07T04:24:38.144Z,93745.03
2024-01-07T04:27:42.352Z,93731.94
2024-01-07T04:30:46.181Z,93726.22
2024-01-07T04:33:50.420Z,93711.13
2024-01-07T04:36:54.209Z,93722.81
2024-01-07T04:39:58.805Z,93707.28
2024-01-07T04:43:02.899Z,93699.41
2024-01-07T04:46:07.393Z,93699.59
2024-01-07T04:49:11.193Z,93692.78
2024-01-07T04:52:15.286Z,93691.72
2024-01-07T04:55:20.000Z,93683.56
2024-01-07T04:58:48.578Z,93683.34
2024-01-07T05:01:51.641Z,93668.78
2024-01-07T05:04:55.758Z,93655.19
2024-01-07T05:08:00.884Z,93655.47
2024-01-07T05:11:03.966Z,93642.97
2024-01-07T05:14:07.253Z,93638.34
2024-01-07T05:17:12.027Z,93639.84
2024-01-07T05:20:17.415Z,93647.78
2024-01-07T05:23:21.218Z,93642.53
2024-01-07T05:26:24.612Z,93646.75
2024-01-07T05:29:29.846Z,93637.13
2024-01-07T05:32:33.946Z,93633.13
2024-01-07T05:35:37.736Z,93638.97
2024-01-07T05:38:43.125Z,93635.00
2024-01-07T05:41:46.579Z,93628.31
2024-01-07T05:44:50.074Z,93616.72
2024-01-07T05:47:53.753Z,93609.06
2024-01-07T05:50:56.983Z,93602.22
2024-01-07T05:54:00.090Z,93604.47
2024-01-07T05:57:07.758Z,93601.53
2024-01-07T06:00:13.013Z,93599.75
2024-01-07T06:03:16.786Z,93591.88
2024-01-07T06:06:20.787Z,93596.06
2024-01-07T06:09:37.714Z,93597.28
2024-01-07T06:12:40.791Z,93607.59
2024-01-07T06:15:43.955Z,93592.06
2024-01-07T06:18:47.346Z,93592.09
2024-01-07T06:21:51.010Z,93597.00
2024-01-07T06:24:54.693Z,93594.78
2024-01-07T06:27:58.912Z,93589.34
2024-01-07T06:31:05.780Z,93592.34
2024-01-07T06:34:09.737Z,93578.00
2024-01-07T06:37:14.037Z,93575.78
2024-01-07T06:40:17.487Z,93585.91
2024-01-07T06:43:21.151Z,93586.66
2024-01-07T06:46:24.286Z,93574.53
2024-01-07T06:49:28.037Z,93572.56
2024-01-07T06:52:31.438Z,93572.53
2024-01-07T06:55:34.904Z,93566.16
2024-01-07T06:58:38.774Z,93569.66
2024-01-07T07:01:42.522Z,93574.34
2024-01-07T07:04:51.597Z,93579.53
2024-01-07T07:07:55.905Z,93583.00
2024-01-07T07:11:13.706Z,93579.75
2024-01-07T07:14:17.633Z,93567.41
2024-01-07T07:17:24.375Z,93575.31
2024-01-07T07:20:28.621Z,93569.38
2024-01-07T07:23:33.573Z,93572.78
2024-01-07T07:26:42.593Z,93570.09
2024-01-07T07:29:46.406Z,93565.19
2024-01-07T07:32:59.006Z,93572.84
2024-01-07T07:36:03.671Z,93573.59
2024-01-07T07:39:06.818Z,93571.88
2024-01-07T07:42:12.278Z,93583.72
2024-01-07T07:45:16.197Z,93577.22
2024-01-07T07:48:22.896Z,93575.47
2024-01-07T07:51:26.785Z,93563.91
2024-01-07T07:58:02.581Z,93567.03
2024-01-07T08:01:17.536Z,93569.19
2024-01-07T08:04:46.356Z,93566.63
2024-01-07T08:07:49.897Z,93566.94
2024-01-07T08:10:53.757Z,93557.97
2024-01-07T08:13:57.755Z,93569.91
2024-01-07T08:17:06.339Z,93569.84
2024-01-07T08:20:11.042Z,93572.75
2024-01-07T08:23:14.878Z,93579.25
2024-01-07T08:26:22.592Z,93574.78
2024-01-07T08:29:26.234Z,93573.06
2024-01-07T08:32:30.320Z,93573.28
2024-01-07T08:35:33.515Z,93579.66
2024-01-07T08:38:37.682Z,93565.41
2024-01-07T08:41:40.664Z,93573.09
2024-01-07T08:44:44.669Z,93567.94
2024-01-07T08:47:48.928Z,93569.41
2024-01-07T08:50:52.709Z,93566.47
2024-01-07T08:53:57.492Z,93571.63
2024-01-07T08:57:01.280Z,93570.03
2024-01-07T09:00:06.399Z,93570.09
2024-01-07T09:03:11.718Z,93572.59
2024-01-07T09:06:15.571Z,93572.63
2024-01-07T09:09:18.938Z,93569.50
2024-01-07T09:12:21.966Z,93558.53
2024-01-07T09:15:25.264Z,93547.91
2024-01-07T09:18:28.425Z,93540.81
2024-01-07T09:21:32.204Z,93560.41
2024-01-07T09:25:00.137Z,93579.69
2024-01-07T09:28:07.110Z,93573.63
2024-01-07T09:31:11.077Z,93591.69
2024-01-07T09:34:14.284Z,93589.69
2024-01-07T09:37:18.763Z,93587.69
2024-01-07T09:40:21.802Z,93587.41
2024-01-07T09:43:27.935Z,93590.91
2024-01-07T09:46:39.630Z,93588.94
2024-01-07T09:49:44.952Z,93592.56
2024-01-07T09:53:03.940Z,93584.59
2024-01-07T09:56:27.160Z,93588.09
2024-01-07T09:59:32.363Z,93577.44
2024-01-07T10:02:37.118Z,93583.03
2024-01-07T10:05:50.271Z,93584.06
2024-01-07T10:08:53.964Z,93584.16
2024-01-07T10:15:51.005Z,93581.75
2024-01-07T10:18:55.336Z,93585.00
2024-01-07T10:22:03.013Z,93582.00
2024-01-07T10:25:08.262Z,93584.41
2024-01-07T10:28:13.202Z,93585.44
2024-01-07T10:31:16.992Z,93583.97
2024-01-07T10:34:23.116Z,93580.22
2024-01-07T10:37:27.998Z,93575.03
2024-01-07T10:40:32.780Z,93569.22
2024-01-07T10:43:38.149Z,93574.16
2024-01-07T10:46:42.133Z,93581.38
2024-01-07T10:49:49.324Z,93588.22
2024-01-07T10:52:59.998Z,93580.38
2024-01-07T10:56:10.314Z,93587.63
2024-01-07T10:59:13.322Z,93585.19
2024-01-07T11:02:17.646Z,93570.06
2024-01-07T11:05:49.706Z,93575.56
2024-01-07T11:09:00.482Z,93565.06
2024-01-07T11:12:06.189Z,93574.16
2024-01-07T11:15:10.502Z,93570.66
2024-01-07T11:18:22.064Z,93571.63
2024-01-07T11:21:28.390Z,93573.03
2024-01-07T11:24:40.949Z,93567.50
2024-01-07T11:27:45.133Z,93565.50
2024-01-07T11:30:51.423Z,93566.44
2024-01-07T11:33:57.190Z,93561.59
2024-01-07T11:37:01.002Z,93568.81
2024-01-07T11:40:10.367Z,93568.06
2024-01-07T11:43:13.868Z,93566.72
2024-01-07T11:46:17.979Z,93580.34
2024-01-07T11:49:21.697Z,93577.03
2024-01-07T11:52:25.209Z,93583.75
2024-01-07T11:55:29.626Z,93573.91
2024-01-07T11:58:33.766Z,93575.38
2024-01-07T12:01:36.908Z,93567.25
2024-01-07T12:04:40.090Z,93563.47
2024-01-07T12:07:43.995Z,93560.03
2024-01-07T12:10:48.405Z,93558.34
2024-01-07T12:13:52.382Z,93558.19
2024-01-07T12:16:57.919Z,93560.63
2024-01-07T12:20:02.618Z,93551.72
2024-01-07T12:23:12.700Z,93556.16
2024-01-07T12:26:15.950Z,93561.91
2024-01-07T12:29:20.410Z,93550.81
2024-01-07T12:32:23.731Z,93562.22
2024-01-07T12:35:29.396Z,93558.06
2024-01-07T12:38:32.378Z,93552.09
2024-01-07T12:41:36.860Z,93563.44
2024-01-07T12:44:40.627Z,93562.63
2024-01-07T12:47:44.720Z,93568.31
2024-01-07T12:50:48.596Z,93570.75
2024-01-07T12:53:52.759Z,93574.00
2024-01-07T12:56:56.464Z,93576.84
2024-01-07T13:00:00.780Z,93568.75
2024-01-07T13:03:06.122Z,93564.63
2024-01-07T13:06:10.553Z,93566.47
2024-01-07T13:09:14.332Z,93563.38
2024-01-07T13:12:18.317Z,93558.34
2024-01-07T13:15:24.991Z,93552.66
2024-01-07T13:18:28.989Z,93559.84
2024-01-07T13:21:33.460Z,93556.91
2024-01-07T13:24:39.768Z,93555.03
2024-01-07T13:27:46.392Z,93554.59
2024-01-07T13:30:50.125Z,93543.94
2024-01-07T13:33:54.052Z,93544.94
2024-01-07T13:36:58.213Z,93532.50
2024-01-07T13:40:02.914Z,93541.69
2024-01-07T13:43:09.634Z,93548.44
2024-01-07T13:46:13.688Z,93526.47
2024-01-07T13:49:17.921Z,93531.34
2024-01-07T13:52:21.797Z,93531.72
2024-01-07T13:55:26.104Z,93524.81
2024-01-07T13:58:30.190Z,93517.22
2024-01-07T14:01:34.550Z,93508.22
2024-01-07T14:04:38.505Z,93517.06
2024-01-07T14:07:41.848Z,93508.97
2024-01-07T14:10:46.327Z,93499.13
2024-01-07T14:13:50.028Z,93504.72
2024-01-07T14:16:54.046Z,93497.13
2024-01-07T14:19:57.075Z,93489.34
2024-01-07T14:23:01.043Z,93486.66
2024-01-07T14:26:05.246Z,93482.41
2024-01-07T14:29:16.154Z,93480.78
2024-01-07T14:32:22.512Z,93477.28
2024-01-07T14:35:30.030Z,93491.81
2024-01-07T14:38:35.199Z,93486.56
2024-01-07T14:41:38.292Z,93481.56
2024-01-07T14:44:48.067Z,93497.34
2024-01-07T14:47:55.384Z,93486.97
2024-01-07T14:50:58.994Z,93474.94
2024-01-07T14:54:03.003Z,93467.91
2024-01-07T14:57:06.293Z,93475.47
2024-01-07T15:00:10.540Z,93467.94
2024-01-07T15:03:13.618Z,93467.28
2024-01-07T15:06:19.309Z,93458.53
2024-01-07T15:09:23.004Z,93475.94
2024-01-07T15:12:26.960Z,93482.22
2024-01-07T15:15:31.579Z,93468.66
2024-01-07T15:18:38.552Z,93468.00
2024-01-07T15:21:42.762Z,93475.47
2024-01-07T15:24:50.033Z,93488.19
2024-01-07T15:27:53.952Z,93484.16
2024-01-07T15:30:58.461Z,93486.38
2024-01-07T15:34:03.586Z,93495.63
2024-01-07T15:37:07.902Z,93489.03
2024-01-07T15:40:11.802Z,93501.88
2024-01-07T15:43:15.420Z,93489.03
2024-01-07T15:46:42.941Z,93506.41
2024-01-07T15:49:46.120Z,93494.56
2024-01-07T15:52:51.015Z,93497.31
2024-01-07T15:55:55.874Z,93510.34
2024-01-07T15:58:59.206Z,93515.44
2024-01-07T16:02:03.456Z,93514.25
2024-01-07T16:05:07.961Z,93509.69
2024-01-07T16:08:14.309Z,93514.13
2024-01-07T16:11:19.638Z,93520.97
2024-01-07T16:14:26.428Z,93525.00
2024-01-07T16:17:29.807Z,93517.25
2024-01-07T16:20:33.843Z,93518.94
2024-01-07T16:23:38.849Z,93510.28
2024-01-07T16:26:45.315Z,93513.41
2024-01-07T16:29:48.985Z,93519.94
2024-01-07T16:32:52.651Z,93517.97
2024-01-07T16:35:56.811Z,93512.22
2024-01-07T16:39:02.749Z,93515.06
2024-01-07T16:42:06.968Z,93521.34
2024-01-07T16:45:10.629Z,93533.94
2024-01-07T16:50:13.146Z,93535.97
2024-01-07T16:51:41.911Z,93537.81
2024-01-07T16:54:48.509Z,93536.63
2024-01-07T16:57:52.326Z,93531.31
2024-01-07T17:01:01.165Z,93531.69
2024-01-07T17:04:04.303Z,93534.63
2024-01-07T17:07:08.397Z,93543.00
2024-01-07T17:10:11.657Z,93537.94
2024-01-07T17:13:16.039Z,93538.22
2024-01-07T17:16:19.030Z,93528.25
2024-01-07T17:19:25.450Z,93531.16
2024-01-07T17:22:29.135Z,93540.38
2024-01-07T17:25:33.404Z,93546.41
2024-01-07T17:28:37.364Z,93546.06
2024-01-07T17:31:41.038Z,93534.66
2024-01-07T17:34:44.191Z,93536.22
2024-01-07T17:37:48.073Z,93539.53
2024-01-07T17:40:51.818Z,93533.59
2024-01-07T17:43:55.588Z,93531.91
2024-01-07T17:46:59.384Z,93535.16
2024-01-07T17:50:26.076Z,93537.63
2024-01-07T17:53:29.818Z,93537.50
2024-01-07T17:56:35.428Z,93545.78
2024-01-07T17:59:40.797Z,93539.75
2024-01-07T18:03:00.402Z,93536.97
2024-01-07T18:06:05.715Z,93550.22
2024-01-07T18:09:09.504Z,93548.84
2024-01-07T18:12:15.811Z,93545.84
2024-01-07T18:15:19.549Z,93563.94
2024-01-07T18:18:25.531Z,93541.56
2024-01-07T18:21:32.637Z,93543.50
2024-01-07T18:24:36.707Z,93558.31
2024-01-07T18:27:40.451Z,93553.00
2024-01-07T18:30:45.051Z,93546.75
2024-01-07T18:33:48.413Z,93547.19
2024-01-07T18:36:52.253Z,93543.91
2024-01-07T18:39:55.171Z,93548.91
2024-01-07T18:43:00.503Z,93553.38
2024-01-07T18:46:04.200Z,93540.97
2024-01-07T18:49:07.371Z,93557.47
2024-01-07T18:52:12.666Z,93560.75
2024-01-07T18:55:16.435Z,93545.06
2024-01-07T18:58:19.902Z,93555.13
2024-01-07T19:01:23.784Z,93551.59
2024-01-07T19:04:28.576Z,93558.50
2024-01-07T19:07:32.428Z,93555.19
2024-01-07T19:10:36.398Z,93552.19
2024-01-07T19:13:39.301Z,93564.72
2024-01-07T19:16:43.275Z,93565.88
2024-01-07T19:19:46.653Z,93567.81
2024-01-07T19:22:49.601Z,93577.94
2024-01-07T19:25:53.408Z,93567.94
2024-01-07T19:28:57.844Z,93565.44
2024-01-07T19:32:01.751Z,93574.41
2024-01-07T19:35:07.778Z,93562.06
2024-01-07T19:38:11.688Z,93567.63
2024-01-07T19:41:25.202Z,93570.34
2024-01-07T19:44:28.975Z,93559.13
2024-01-07T19:47:33.406Z,93566.72
2024-01-07T19:50:37.325Z,93568.31
2024-01-07T19:53:45.226Z,93580.75
2024-01-07T19:57:09.171Z,93580.19
2024-01-07T20:00:18.318Z,93572.03
2024-01-07T20:03:21.429Z,93566.34
2024-01-07T20:06:25.780Z,93572.25
2024-01-07T20:09:29.314Z,93576.97
2024-01-07T20:12:33.864Z,93576.22
2024-01-07T20:15:37.914Z,93583.53
2024-01-07T20:18:41.588Z,93574.28
2024-01-07T20:21:44.629Z,93570.94
2024-01-07T20:24:48.358Z,93577.38
2024-01-07T20:27:54.918Z,93583.53
2024-01-07T20:30:58.427Z,93574.31
2024-01-07T20:34:29.656Z,93572.81
2024-01-07T20:37:33.803Z,93579.63
2024-01-07T20:40:45.180Z,93580.19
2024-01-07T20:43:51.685Z,93574.28
2024-01-07T20:47:00.311Z,93594.69
2024-01-07T20:50:10.223Z,93592.56
2024-01-07T20:53:41.466Z,93580.75
2024-01-07T20:56:50.598Z,93593.38
2024-01-07T20:59:53.717Z,93596.69
2024-01-07T21:02:57.621Z,93599.75
2024-01-07T21:06:04.277Z,93600.81
2024-01-07T21:09:19.073Z,93608.66
2024-01-07T21:12:23.224Z,93609.75
2024-01-07T21:15:30.096Z,93608.94
2024-01-07T21:18:34.383Z,93616.09
2024-01-07T21:21:38.393Z,93626.06
2024-01-07T21:24:42.498Z,93622.34
2024-01-07T21:27:46.089Z,93621.38
2024-01-07T21:30:49.054Z,93635.84
2024-01-07T21:33:52.183Z,93624.50
2024-01-07T21:36:56.595Z,93637.06
2024-01-07T21:39:59.585Z,93639.50
2024-01-07T21:43:09.332Z,93643.41
2024-01-07T21:46:12.671Z,93659.75
2024-01-07T21:49:16.550Z,93649.63
2024-01-07T21:52:27.557Z,93665.03
2024-01-07T21:55:31.268Z,93662.66
2024-01-07T21:58:35.323Z,93660.41
2024-01-07T22:01:38.509Z,93657.59
2024-01-07T22:04:42.019Z,93670.66
2024-01-07T22:07:45.309Z,93659.44
2024-01-07T22:10:48.963Z,93657.19
2024-01-07T22:13:53.279Z,93650.78
2024-01-07T22:16:56.387Z,93654.94
2024-01-07T22:19:59.669Z,93671.44
2024-01-07T22:23:03.102Z,93667.59
2024-01-07T22:26:06.724Z,93665.31
2024-01-07T22:29:12.076Z,93683.31
2024-01-07T22:32:16.155Z,93688.53
2024-01-07T22:35:19.415Z,93686.69
2024-01-07T22:38:24.383Z,93684.75
2024-01-07T22:41:27.458Z,93696.38
2024-01-07T22:44:30.788Z,93695.50
2024-01-07T22:47:34.221Z,93695.38
2024-01-07T22:50:38.225Z,93697.69
2024-01-07T22:53:41.413Z,93708.97
2024-01-07T22:56:46.166Z,93708.72
2024-01-07T22:59:50.163Z,93705.72
2024-01-07T23:02:55.929Z,93701.31
2024-01-07T23:05:59.529Z,93703.81
2024-01-07T23:09:03.214Z,93721.88
2024-01-07T23:12:06.417Z,93730.19
2024-01-07T23:15:10.554Z,93739.09
2024-01-07T23:18:14.217Z,93738.16
2024-01-07T23:21:17.467Z,93749.06
2024-01-07T23:24:21.224Z,93760.72
2024-01-07T23:27:26.820Z,93777.06
2024-01-07T23:30:29.820Z,93769.75
2024-01-07T23:33:33.782Z,93755.91
2024-01-07T23:36:37.884Z,93766.75
2024-01-07T23:39:40.890Z,93769.56
2024-01-07T23:42:44.429Z,93772.75
2024-01-07T23:45:47.840Z,93786.97
2024-01-07T23:48:51.688Z,93791.66
2024-01-07T23:51:55.132Z,93783.97
2024-01-07T23:54:58.134Z,93794.47
2024-01-07T23:58:02.227Z,93788.63
